sensor_id;sensor_type;location;lat;lon;timestamp;pressure;altitude;pressure_sealevel;temperature;humidity
32237;BME280;18726;44.732;10.550;2023-04-29T00:00:12;100979.22;;;16.37;100.00
32237;BME280;18726;44.732;10.550;2023-04-29T00:03:16;100987.47;;;16.41;100.00
32237;BME280;18726;44.732;10.550;2023-04-29T00:06:21;100982.41;;;16.46;100.00
32237;BME280;18726;44.732;10.550;2023-04-29T00:09:25;100981.63;;;16.46;100.00
32237;BME280;18726;44.732;10.550;2023-04-29T00:12:29;100975.13;;;16.20;100.00
32237;BME280;18726;44.732;10.550;2023-04-29T00:15:34;100973.72;;;15.97;100.00
32237;BME280;18726;44.732;10.550;2023-04-29T00:18:40;100974.28;;;15.76;100.00
32237;BME280;18726;44.732;10.550;2023-04-29T00:21:43;100972.44;;;15.53;100.00
32237;BME280;18726;44.732;10.550;2023-04-29T00:24:47;100954.66;;;15.40;100.00
32237;BME280;18726;44.732;10.550;2023-04-29T00:27:50;100945.91;;;15.31;100.00
32237;BME280;18726;44.732;10.550;2023-04-29T00:30:54;100951.00;;;15.29;100.00
32237;BME280;18726;44.732;10.550;2023-04-29T00:33:58;100952.59;;;15.30;100.00
32237;BME280;18726;44.732;10.550;2023-04-29T00:37:02;100953.81;;;15.36;100.00
32237;BME280;18726;44.732;10.550;2023-04-29T00:40:07;100952.38;;;15.46;100.00
32237;BME280;18726;44.732;10.550;2023-04-29T00:43:11;100954.69;;;15.44;100.00
32237;BME280;18726;44.732;10.550;2023-04-29T00:46:15;100962.88;;;15.40;100.00
32237;BME280;18726;44.732;10.550;2023-04-29T00:49:20;100971.16;;;15.47;100.00
32237;BME280;18726;44.732;10.550;2023-04-29T00:52:25;100974.75;;;15.51;100.00
32237;BME280;18726;44.732;10.550;2023-04-29T00:55:30;100974.44;;;15.57;100.00
32237;BME280;18726;44.732;10.550;2023-04-29T00:58:35;100959.63;;;15.61;100.00
32237;BME280;18726;44.732;10.550;2023-04-29T01:01:39;100961.97;;;15.63;100.00
32237;BME280;18726;44.732;10.550;2023-04-29T01:04:42;100964.31;;;15.61;100.00
32237;BME280;18726;44.732;10.550;2023-04-29T01:11:08;100945.47;;;15.56;100.00
32237;BME280;18726;44.732;10.550;2023-04-29T01:14:14;100947.06;;;15.57;100.00
32237;BME280;18726;44.732;10.550;2023-04-29T01:17:24;100943.88;;;15.54;100.00
32237;BME280;18726;44.732;10.550;2023-04-29T01:20:32;100936.03;;;15.53;100.00
32237;BME280;18726;44.732;10.550;2023-04-29T01:23:37;100938.31;;;15.47;100.00
32237;BME280;18726;44.732;10.550;2023-04-29T01:26:50;100936.75;;;15.46;100.00
32237;BME280;18726;44.732;10.550;2023-04-29T01:34:13;100935.91;;;15.42;100.00
32237;BME280;18726;44.732;10.550;2023-04-29T01:40:47;100942.97;;;15.43;100.00
32237;BME280;18726;44.732;10.550;2023-04-29T01:44:01;100931.16;;;15.39;100.00
32237;BME280;18726;44.732;10.550;2023-04-29T01:47:09;100913.16;;;15.38;100.00
32237;BME280;18726;44.732;10.550;2023-04-29T01:50:20;100907.59;;;15.31;100.00
32237;BME280;18726;44.732;10.550;2023-04-29T01:53:24;100929.47;;;15.28;100.00
32237;BME280;18726;44.732;10.550;2023-04-29T01:56:28;100926.31;;;15.26;100.00
32237;BME280;18726;44.732;10.550;2023-04-29T01:59:40;100928.38;;;15.36;100.00
32237;BME280;18726;44.732;10.550;2023-04-29T02:02:54;100919.06;;;15.40;100.00
32237;BME280;18726;44.732;10.550;2023-04-29T02:06:06;100924.06;;;15.35;100.00
32237;BME280;18726;44.732;10.550;2023-04-29T02:09:11;100915.44;;;15.33;100.00
32237;BME280;18726;44.732;10.550;2023-04-29T02:12:15;100918.56;;;15.31;100.00
32237;BME280;18726;44.732;10.550;2023-04-29T02:15:19;100920.91;;;15.29;100.00
32237;BME280;18726;44.732;10.550;2023-04-29T02:18:23;100927.22;;;15.07;100.00
32237;BME280;18726;44.732;10.550;2023-04-29T02:21:27;100918.16;;;14.99;100.00
32237;BME280;18726;44.732;10.550;2023-04-29T02:24:31;100915.44;;;15.03;100.00
32237;BME280;18726;44.732;10.550;2023-04-29T02:27:34;100911.13;;;15.02;100.00
32237;BME280;18726;44.732;10.550;2023-04-29T02:30:38;100902.53;;;15.00;100.00
32237;BME280;18726;44.732;10.550;2023-04-29T02:33:42;100907.25;;;15.03;100.00
32237;BME280;18726;44.732;10.550;2023-04-29T02:36:46;100911.13;;;15.02;100.00
32237;BME280;18726;44.732;10.550;2023-04-29T02:39:49;100902.84;;;14.95;100.00
32237;BME280;18726;44.732;10.550;2023-04-29T02:42:53;100903.16;;;14.90;100.00
32237;BME280;18726;44.732;10.550;2023-04-29T02:45:57;100905.59;;;14.95;100.00
32237;BME280;18726;44.732;10.550;2023-04-29T02:49:02;100913.00;;;14.94;100.00
32237;BME280;18726;44.732;10.550;2023-04-29T02:52:06;100915.88;;;15.05;100.00
32237;BME280;18726;44.732;10.550;2023-04-29T02:55:11;100934.03;;;15.16;100.00
32237;BME280;18726;44.732;10.550;2023-04-29T02:58:14;100931.06;;;15.29;100.00
32237;BME280;18726;44.732;10.550;2023-04-29T03:01:18;100932.69;;;15.37;100.00
32237;BME280;18726;44.732;10.550;2023-04-29T03:04:22;100939.91;;;15.48;100.00
32237;BME280;18726;44.732;10.550;2023-04-29T03:07:26;100938.56;;;15.35;100.00
32237;BME280;18726;44.732;10.550;2023-04-29T03:10:30;100945.13;;;15.27;100.00
32237;BME280;18726;44.732;10.550;2023-04-29T03:13:34;100939.63;;;15.27;100.00
32237;BME280;18726;44.732;10.550;2023-04-29T03:16:38;100927.13;;;15.26;100.00
32237;BME280;18726;44.732;10.550;2023-04-29T03:19:42;100911.13;;;15.02;100.00
32237;BME280;18726;44.732;10.550;2023-04-29T03:22:46;100911.75;;;14.88;100.00
32237;BME280;18726;44.732;10.550;2023-04-29T03:25:49;100905.44;;;14.84;100.00
32237;BME280;18726;44.732;10.550;2023-04-29T03:28:55;100912.59;;;14.92;100.00
32237;BME280;18726;44.732;10.550;2023-04-29T03:32:01;100915.09;;;15.04;100.00
32237;BME280;18726;44.732;10.550;2023-04-29T03:35:05;100905.59;;;14.95;100.00
32237;BME280;18726;44.732;10.550;2023-04-29T03:38:14;100895.28;;;14.84;100.00
32237;BME280;18726;44.732;10.550;2023-04-29T03:41:18;100898.28;;;14.76;100.00
32237;BME280;18726;44.732;10.550;2023-04-29T03:44:22;100905.44;;;14.84;100.00
32237;BME280;18726;44.732;10.550;2023-04-29T03:47:26;100907.81;;;14.85;100.00
32237;BME280;18726;44.732;10.550;2023-04-29T03:50:29;100909.66;;;15.08;100.00
32237;BME280;18726;44.732;10.550;2023-04-29T03:53:34;100900.44;;;15.19;100.00
32237;BME280;18726;44.732;10.550;2023-04-29T03:56:41;100897.97;;;14.81;100.00
32237;BME280;18726;44.732;10.550;2023-04-29T03:59:45;100903.63;;;14.65;100.00
32237;BME280;18726;44.732;10.550;2023-04-29T04:02:52;100908.78;;;14.70;100.00
32237;BME280;18726;44.732;10.550;2023-04-29T04:05:56;100906.84;;;14.74;100.00
32237;BME280;18726;44.732;10.550;2023-04-29T04:09:00;100912.81;;;15.10;100.00
32237;BME280;18726;44.732;10.550;2023-04-29T04:12:06;100915.44;;;15.33;100.00
32237;BME280;18726;44.732;10.550;2023-04-29T04:15:10;100915.00;;;15.57;100.00
32237;BME280;18726;44.732;10.550;2023-04-29T04:18:14;100931.66;;;15.78;100.00
32237;BME280;18726;44.732;10.550;2023-04-29T04:21:18;100935.03;;;16.02;100.00
32237;BME280;18726;44.732;10.550;2023-04-29T04:24:28;100922.44;;;15.97;100.00
32237;BME280;18726;44.732;10.550;2023-04-29T04:27:32;100930.38;;;15.69;100.00
32237;BME280;18726;44.732;10.550;2023-04-29T04:30:39;100939.50;;;15.80;100.00
32237;BME280;18726;44.732;10.550;2023-04-29T04:33:43;100945.88;;;15.91;100.00
32237;BME280;18726;44.732;10.550;2023-04-29T04:36:47;100939.72;;;16.01;100.00
32237;BME280;18726;44.732;10.550;2023-04-29T04:39:51;100946.13;;;16.19;100.00
32237;BME280;18726;44.732;10.550;2023-04-29T04:42:55;100946.28;;;16.34;100.00
32237;BME280;18726;44.732;10.550;2023-04-29T04:45:59;100946.41;;;16.51;100.00
32237;BME280;18726;44.732;10.550;2023-04-29T04:49:04;100956.81;;;16.72;100.00
32237;BME280;18726;44.732;10.550;2023-04-29T04:52:10;100959.22;;;16.84;100.00
32237;BME280;18726;44.732;10.550;2023-04-29T04:55:14;100959.34;;;15.70;100.00
32237;BME280;18726;44.732;10.550;2023-04-29T04:58:21;100971.44;;;16.02;100.00
32237;BME280;18726;44.732;10.550;2023-04-29T05:01:25;100957.84;;;16.13;100.00
32237;BME280;18726;44.732;10.550;2023-04-29T05:04:28;100950.22;;;15.96;100.00
32237;BME280;18726;44.732;10.550;2023-04-29T05:07:32;100938.75;;;15.83;100.00
32237;BME280;18726;44.732;10.550;2023-04-29T05:10:41;100948.97;;;15.86;100.00
32237;BME280;18726;44.732;10.550;2023-04-29T05:13:46;100951.31;;;15.88;100.00
32237;BME280;18726;44.732;10.550;2023-04-29T05:16:50;100953.50;;;16.08;100.00
32237;BME280;18726;44.732;10.550;2023-04-29T05:19:55;100959.09;;;16.23;100.00
32237;BME280;18726;44.732;10.550;2023-04-29T05:22:59;100964.22;;;16.28;100.00
32237;BME280;18726;44.732;10.550;2023-04-29T05:26:03;100960.25;;;16.21;100.00
32237;BME280;18726;44.732;10.550;2023-04-29T05:29:07;100960.53;;;16.09;100.00
32237;BME280;18726;44.732;10.550;2023-04-29T05:32:20;100956.81;;;15.91;100.00
32237;BME280;18726;44.732;10.550;2023-04-29T05:35:24;100954.31;;;15.75;100.00
32237;BME280;18726;44.732;10.550;2023-04-29T05:38:28;100963.84;;;15.88;100.00
32237;BME280;18726;44.732;10.550;2023-04-29T05:41:39;100957.06;;;16.12;100.00
32237;BME280;18726;44.732;10.550;2023-04-29T05:44:54;100954.50;;;16.34;100.00
32237;BME280;18726;44.732;10.550;2023-04-29T05:47:58;100962.81;;;16.44;100.00
32237;BME280;18726;44.732;10.550;2023-04-29T05:51:02;100967.50;;;16.40;100.00
32237;BME280;18726;44.732;10.550;2023-04-29T05:54:06;100952.66;;;16.45;100.00
32237;BME280;18726;44.732;10.550;2023-04-29T05:57:10;100949.50;;;16.46;100.00
32237;BME280;18726;44.732;10.550;2023-04-29T06:00:13;100957.31;;;16.41;100.00
32237;BME280;18726;44.732;10.550;2023-04-29T06:03:17;100967.53;;;16.47;100.00
32237;BME280;18726;44.732;10.550;2023-04-29T06:06:21;100972.47;;;16.75;100.00
32237;BME280;18726;44.732;10.550;2023-04-29T06:09:45;100975.78;;;16.99;100.00
32237;BME280;18726;44.732;10.550;2023-04-29T06:12:49;100983.75;;;17.18;100.00
32237;BME280;18726;44.732;10.550;2023-04-29T06:15:54;100972.72;;;17.11;100.00
32237;BME280;18726;44.732;10.550;2023-04-29T06:18:57;100978.06;;;16.90;100.00
32237;BME280;18726;44.732;10.550;2023-04-29T06:22:02;100982.28;;;16.76;100.00
32237;BME280;18726;44.732;10.550;2023-04-29T06:25:07;100979.16;;;16.78;100.00
32237;BME280;18726;44.732;10.550;2023-04-29T06:28:25;100979.84;;;16.64;100.00
32237;BME280;18726;44.732;10.550;2023-04-29T06:31:28;100966.03;;;16.57;100.00
32237;BME280;18726;44.732;10.550;2023-04-29T06:34:36;100951.97;;;16.59;100.00
32237;BME280;18726;44.732;10.550;2023-04-29T06:38:02;100937.94;;;16.67;100.00
32237;BME280;18726;44.732;10.550;2023-04-29T06:41:24;100927.81;;;16.78;100.00
32237;BME280;18726;44.732;10.550;2023-04-29T06:44:42;100926.34;;;16.92;100.00
32237;BME280;18726;44.732;10.550;2023-04-29T06:48:01;100944.53;;;17.17;100.00
32237;BME280;18726;44.732;10.550;2023-04-29T06:51:24;100965.16;;;17.70;100.00
32237;BME280;18726;44.732;10.550;2023-04-29T06:54:27;100973.16;;;18.32;100.00
32237;BME280;18726;44.732;10.550;2023-04-29T06:57:31;100983.81;;;18.72;100.00
32237;BME280;18726;44.732;10.550;2023-04-29T07:00:36;100994.75;;;19.08;100.00
32237;BME280;18726;44.732;10.550;2023-04-29T07:03:39;100995.06;;;19.52;100.00
32237;BME280;18726;44.732;10.550;2023-04-29T07:06:43;101002.13;;;20.27;100.00
32237;BME280;18726;44.732;10.550;2023-04-29T07:09:49;101020.16;;;20.94;100.00
32237;BME280;18726;44.732;10.550;2023-04-29T07:12:55;101022.75;;;21.52;100.00
32237;BME280;18726;44.732;10.550;2023-04-29T07:15:59;101018.34;;;21.89;99.87
32237;BME280;18726;44.732;10.550;2023-04-29T07:19:03;101012.94;;;22.09;99.77
32237;BME280;18726;44.732;10.550;2023-04-29T07:22:07;101006.91;;;22.17;96.91
32237;BME280;18726;44.732;10.550;2023-04-29T07:25:11;101009.84;;;22.30;95.69
32237;BME280;18726;44.732;10.550;2023-04-29T07:28:14;101021.72;;;22.31;95.02
32237;BME280;18726;44.732;10.550;2023-04-29T07:31:18;101018.78;;;22.41;97.12
32237;BME280;18726;44.732;10.550;2023-04-29T07:34:22;101026.69;;;22.43;96.70
32237;BME280;18726;44.732;10.550;2023-04-29T07:37:26;101032.63;;;21.09;100.00
32237;BME280;18726;44.732;10.550;2023-04-29T07:40:30;101031.72;;;20.81;100.00
32237;BME280;18726;44.732;10.550;2023-04-29T07:43:35;101034.78;;;20.90;100.00
32237;BME280;18726;44.732;10.550;2023-04-29T07:46:39;101041.69;;;20.68;100.00
32237;BME280;18726;44.732;10.550;2023-04-29T07:49:42;101045.50;;;20.81;100.00
32237;BME280;18726;44.732;10.550;2023-04-29T07:52:46;101055.72;;;20.88;100.00
32237;BME280;18726;44.732;10.550;2023-04-29T07:55:53;101055.97;;;21.45;100.00
32237;BME280;18726;44.732;10.550;2023-04-29T07:58:59;101056.03;;;21.76;100.00
32237;BME280;18726;44.732;10.550;2023-04-29T08:02:03;101051.56;;;21.85;100.00
32237;BME280;18726;44.732;10.550;2023-04-29T08:05:07;101046.25;;;22.29;98.12
32237;BME280;18726;44.732;10.550;2023-04-29T08:08:11;101051.66;;;22.89;97.31
32237;BME280;18726;44.732;10.550;2023-04-29T08:11:19;101054.19;;;22.27;100.00
32237;BME280;18726;44.732;10.550;2023-04-29T08:14:23;101059.53;;;22.41;100.00
32237;BME280;18726;44.732;10.550;2023-04-29T08:17:27;101059.72;;;22.27;100.00
32237;BME280;18726;44.732;10.550;2023-04-29T08:20:30;101063.69;;;21.95;100.00
32237;BME280;18726;44.732;10.550;2023-04-29T08:23:34;101062.34;;;21.76;100.00
32237;BME280;18726;44.732;10.550;2023-04-29T08:26:41;101065.16;;;21.73;100.00
32237;BME280;18726;44.732;10.550;2023-04-29T08:29:44;101070.59;;;21.80;100.00
32237;BME280;18726;44.732;10.550;2023-04-29T08:32:49;101072.06;;;21.92;100.00
32237;BME280;18726;44.732;10.550;2023-04-29T08:35:59;101073.84;;;22.36;100.00
32237;BME280;18726;44.732;10.550;2023-04-29T08:39:05;101068.88;;;22.77;100.00
32237;BME280;18726;44.732;10.550;2023-04-29T08:42:09;101060.94;;;23.03;100.00
32237;BME280;18726;44.732;10.550;2023-04-29T08:45:14;101058.88;;;23.30;100.00
32237;BME280;18726;44.732;10.550;2023-04-29T08:48:20;101059.56;;;23.77;95.61
32237;BME280;18726;44.732;10.550;2023-04-29T08:51:24;101053.31;;;23.53;91.36
32237;BME280;18726;44.732;10.550;2023-04-29T08:54:27;101044.59;;;23.51;91.60
32237;BME280;18726;44.732;10.550;2023-04-29T08:57:35;101048.69;;;23.43;93.77
32237;BME280;18726;44.732;10.550;2023-04-29T09:00:43;101043.47;;;23.69;93.71
32237;BME280;18726;44.732;10.550;2023-04-29T09:04:02;101038.81;;;23.66;94.64
32237;BME280;18726;44.732;10.550;2023-04-29T09:07:07;101036.28;;;23.71;92.84
32237;BME280;18726;44.732;10.550;2023-04-29T09:10:13;101027.72;;;23.42;94.75
32237;BME280;18726;44.732;10.550;2023-04-29T09:13:28;101024.03;;;23.49;94.70
32237;BME280;18726;44.732;10.550;2023-04-29T09:16:32;101029.28;;;23.67;92.09
32237;BME280;18726;44.732;10.550;2023-04-29T09:19:37;101033.38;;;23.78;92.21
32237;BME280;18726;44.732;10.550;2023-04-29T09:22:48;101024.94;;;22.79;100.00
32237;BME280;18726;44.732;10.550;2023-04-29T09:25:56;101028.25;;;23.37;97.47
32237;BME280;18726;44.732;10.550;2023-04-29T09:29:13;101028.53;;;23.00;98.91
32237;BME280;18726;44.732;10.550;2023-04-29T09:32:20;101024.13;;;22.29;100.00
32237;BME280;18726;44.732;10.550;2023-04-29T09:35:26;101022.41;;;22.11;100.00
32237;BME280;18726;44.732;10.550;2023-04-29T09:38:30;101022.13;;;21.99;100.00
32237;BME280;18726;44.732;10.550;2023-04-29T09:41:33;101016.50;;;22.09;100.00
32237;BME280;18726;44.732;10.550;2023-04-29T09:44:40;101017.75;;;22.32;100.00
32237;BME280;18726;44.732;10.550;2023-04-29T09:47:45;101012.66;;;22.53;100.00
32237;BME280;18726;44.732;10.550;2023-04-29T09:50:59;101013.56;;;22.47;100.00
32237;BME280;18726;44.732;10.550;2023-04-29T09:54:19;101014.63;;;22.53;100.00
32237;BME280;18726;44.732;10.550;2023-04-29T09:57:38;101013.53;;;21.93;100.00
32237;BME280;18726;44.732;10.550;2023-04-29T10:00:42;101008.53;;;22.15;100.00
32237;BME280;18726;44.732;10.550;2023-04-29T10:03:46;101000.03;;;22.26;100.00
32237;BME280;18726;44.732;10.550;2023-04-29T10:06:53;100994.56;;;22.49;100.00
32237;BME280;18726;44.732;10.550;2023-04-29T10:09:57;100999.41;;;22.41;100.00
32237;BME280;18726;44.732;10.550;2023-04-29T10:13:01;100995.69;;;22.78;100.00
32237;BME280;18726;44.732;10.550;2023-04-29T10:16:28;101009.19;;;22.73;100.00
32237;BME280;18726;44.732;10.550;2023-04-29T10:19:36;101011.66;;;22.67;100.00
32237;BME280;18726;44.732;10.550;2023-04-29T10:22:48;101004.34;;;22.80;100.00
32237;BME280;18726;44.732;10.550;2023-04-29T10:25:52;101002.28;;;23.08;100.00
32237;BME280;18726;44.732;10.550;2023-04-29T10:28:58;100992.47;;;23.03;100.00
32237;BME280;18726;44.732;10.550;2023-04-29T10:32:06;100994.63;;;23.35;100.00
32237;BME280;18726;44.732;10.550;2023-04-29T10:35:13;100995.16;;;23.46;100.00
32237;BME280;18726;44.732;10.550;2023-04-29T10:38:44;100999.16;;;23.85;100.00
32237;BME280;18726;44.732;10.550;2023-04-29T10:41:49;100989.13;;;23.91;100.00
32237;BME280;18726;44.732;10.550;2023-04-29T10:45:16;100976.81;;;23.72;97.98
32237;BME280;18726;44.732;10.550;2023-04-29T10:48:20;100976.69;;;24.48;100.00
32237;BME280;18726;44.732;10.550;2023-04-29T10:51:31;100971.41;;;23.85;92.30
32237;BME280;18726;44.732;10.550;2023-04-29T10:54:35;100968.56;;;23.69;93.42
32237;BME280;18726;44.732;10.550;2023-04-29T10:57:39;100969.41;;;24.54;99.04
32237;BME280;18726;44.732;10.550;2023-04-29T11:00:43;100972.09;;;25.73;85.21
32237;BME280;18726;44.732;10.550;2023-04-29T11:06:54;100978.16;;;25.14;88.87
32237;BME280;18726;44.732;10.550;2023-04-29T11:10:01;100973.50;;;25.52;85.49
32237;BME280;18726;44.732;10.550;2023-04-29T11:13:24;100968.00;;;26.03;88.94
32237;BME280;18726;44.732;10.550;2023-04-29T11:16:30;100975.09;;;26.30;82.69
32237;BME280;18726;44.732;10.550;2023-04-29T11:19:40;100971.72;;;25.58;76.78
32237;BME280;18726;44.732;10.550;2023-04-29T11:22:50;100971.69;;;26.13;83.52
32237;BME280;18726;44.732;10.550;2023-04-29T11:25:54;100975.34;;;26.95;77.37
32237;BME280;18726;44.732;10.550;2023-04-29T11:28:59;100977.47;;;26.18;74.41
32237;BME280;18726;44.732;10.550;2023-04-29T11:32:03;100970.56;;;27.17;78.43
32237;BME280;18726;44.732;10.550;2023-04-29T11:38:12;100955.09;;;28.09;71.93
32237;BME280;18726;44.732;10.550;2023-04-29T11:41:16;100956.66;;;28.10;68.97
32237;BME280;18726;44.732;10.550;2023-04-29T11:44:20;100952.41;;;25.26;73.93
32237;BME280;18726;44.732;10.550;2023-04-29T11:47:26;100946.50;;;24.34;80.86
32237;BME280;18726;44.732;10.550;2023-04-29T11:50:31;100944.06;;;23.28;92.59
32237;BME280;18726;44.732;10.550;2023-04-29T11:53:36;100932.59;;;23.45;95.39
32237;BME280;18726;44.732;10.550;2023-04-29T11:56:40;100926.38;;;22.08;100.00
32237;BME280;18726;44.732;10.550;2023-04-29T11:59:45;100940.22;;;22.08;100.00
32237;BME280;18726;44.732;10.550;2023-04-29T12:02:49;100946.13;;;23.04;100.00
32237;BME280;18726;44.732;10.550;2023-04-29T12:05:54;100940.19;;;22.12;100.00
32237;BME280;18726;44.732;10.550;2023-04-29T12:08:58;100943.47;;;22.27;100.00
32237;BME280;18726;44.732;10.550;2023-04-29T12:12:03;100929.94;;;21.51;100.00
32237;BME280;18726;44.732;10.550;2023-04-29T12:15:07;100936.94;;;21.90;100.00
32237;BME280;18726;44.732;10.550;2023-04-29T12:18:13;100924.22;;;21.66;100.00
32237;BME280;18726;44.732;10.550;2023-04-29T12:21:16;100927.72;;;22.70;100.00
32237;BME280;18726;44.732;10.550;2023-04-29T12:24:20;100930.63;;;22.40;100.00
32237;BME280;18726;44.732;10.550;2023-04-29T12:27:24;100926.72;;;21.56;100.00
32237;BME280;18726;44.732;10.550;2023-04-29T12:30:29;100933.78;;;21.31;100.00
32237;BME280;18726;44.732;10.550;2023-04-29T12:33:33;100926.34;;;20.86;100.00
32237;BME280;18726;44.732;10.550;2023-04-29T12:36:36;100918.22;;;21.71;100.00
32237;BME280;18726;44.732;10.550;2023-04-29T12:39:41;100913.16;;;21.66;100.00
32237;BME280;18726;44.732;10.550;2023-04-29T12:42:45;100920.66;;;22.22;100.00
32237;BME280;18726;44.732;10.550;2023-04-29T12:45:53;100905.22;;;22.68;100.00
32237;BME280;18726;44.732;10.550;2023-04-29T12:48:56;100906.78;;;22.69;100.00
32237;BME280;18726;44.732;10.550;2023-04-29T12:52:00;100895.81;;;21.92;100.00
32237;BME280;18726;44.732;10.550;2023-04-29T12:55:11;100901.34;;;22.62;100.00
32237;BME280;18726;44.732;10.550;2023-04-29T12:58:15;100895.13;;;22.35;100.00
32237;BME280;18726;44.732;10.550;2023-04-29T13:01:18;100902.19;;;21.32;100.00
32237;BME280;18726;44.732;10.550;2023-04-29T13:04:25;100899.88;;;22.11;100.00
32237;BME280;18726;44.732;10.550;2023-04-29T13:07:29;100893.78;;;21.66;100.00
32237;BME280;18726;44.732;10.550;2023-04-29T13:10:34;100885.19;;;21.87;100.00
32237;BME280;18726;44.732;10.550;2023-04-29T13:13:37;100885.38;;;22.03;100.00
32237;BME280;18726;44.732;10.550;2023-04-29T13:16:41;100884.31;;;21.67;100.00
32237;BME280;18726;44.732;10.550;2023-04-29T13:19:45;100878.69;;;21.97;100.00
32237;BME280;18726;44.732;10.550;2023-04-29T13:22:49;100870.56;;;22.13;100.00
32237;BME280;18726;44.732;10.550;2023-04-29T13:25:54;100865.56;;;22.05;100.00
32237;BME280;18726;44.732;10.550;2023-04-29T13:28:59;100863.13;;;22.10;100.00
32237;BME280;18726;44.732;10.550;2023-04-29T13:32:03;100856.22;;;22.22;100.00
32237;BME280;18726;44.732;10.550;2023-04-29T13:35:07;100856.25;;;22.42;100.00
32237;BME280;18726;44.732;10.550;2023-04-29T13:38:12;100850.22;;;22.23;98.87
32237;BME280;18726;44.732;10.550;2023-04-29T13:41:16;100852.84;;;22.11;100.00
32237;BME280;18726;44.732;10.550;2023-04-29T13:44:19;100844.88;;;22.36;99.26
32237;BME280;18726;44.732;10.550;2023-04-29T13:47:23;100840.97;;;22.10;93.25
32237;BME280;18726;44.732;10.550;2023-04-29T13:50:27;100840.19;;;22.10;93.50
32237;BME280;18726;44.732;10.550;2023-04-29T13:53:31;100839.34;;;22.56;87.55
32237;BME280;18726;44.732;10.550;2023-04-29T13:56:34;100844.09;;;22.99;89.67
32237;BME280;18726;44.732;10.550;2023-04-29T13:59:38;100843.06;;;22.69;93.19
32237;BME280;18726;44.732;10.550;2023-04-29T14:02:42;100842.03;;;22.40;94.97
32237;BME280;18726;44.732;10.550;2023-04-29T14:05:46;100848.94;;;22.95;94.60
32237;BME280;18726;44.732;10.550;2023-04-29T14:08:50;100840.13;;;23.00;93.27
32237;BME280;18726;44.732;10.550;2023-04-29T14:11:55;100835.22;;;22.87;91.94
32237;BME280;18726;44.732;10.550;2023-04-29T14:14:59;100839.50;;;22.49;93.06
32237;BME280;18726;44.732;10.550;2023-04-29T14:18:03;100847.50;;;23.06;86.44
32237;BME280;18726;44.732;10.550;2023-04-29T14:21:07;100842.63;;;23.30;87.56
32237;BME280;18726;44.732;10.550;2023-04-29T14:24:11;100845.88;;;22.89;88.22
32237;BME280;18726;44.732;10.550;2023-04-29T14:27:14;100826.16;;;23.23;89.29
32237;BME280;18726;44.732;10.550;2023-04-29T14:30:18;100825.16;;;23.33;88.78
32237;BME280;18726;44.732;10.550;2023-04-29T14:33:21;100823.59;;;22.53;94.66
32237;BME280;18726;44.732;10.550;2023-04-29T14:36:25;100827.94;;;22.11;96.94
32237;BME280;18726;44.732;10.550;2023-04-29T14:39:29;100819.59;;;21.64;97.22
32237;BME280;18726;44.732;10.550;2023-04-29T14:42:33;100822.56;;;22.23;92.52
32237;BME280;18726;44.732;10.550;2023-04-29T14:45:36;100818.47;;;22.32;92.73
32237;BME280;18726;44.732;10.550;2023-04-29T14:48:39;100824.47;;;22.27;89.27
32237;BME280;18726;44.732;10.550;2023-04-29T14:51:43;100825.31;;;22.23;90.14
32237;BME280;18726;44.732;10.550;2023-04-29T14:54:46;100828.72;;;22.74;92.04
32237;BME280;18726;44.732;10.550;2023-04-29T14:57:50;100831.69;;;22.44;90.06
32237;BME280;18726;44.732;10.550;2023-04-29T15:00:54;100838.69;;;22.29;89.66
32237;BME280;18726;44.732;10.550;2023-04-29T15:03:58;100831.22;;;22.26;89.10
32237;BME280;18726;44.732;10.550;2023-04-29T15:07:01;100830.31;;;22.75;88.25
32237;BME280;18726;44.732;10.550;2023-04-29T15:10:06;100833.06;;;23.15;87.79
32237;BME280;18726;44.732;10.550;2023-04-29T15:13:12;100814.75;;;22.18;94.90
32237;BME280;18726;44.732;10.550;2023-04-29T15:16:16;100816.56;;;21.28;100.00
32237;BME280;18726;44.732;10.550;2023-04-29T15:19:19;100823.69;;;21.52;100.00
32237;BME280;18726;44.732;10.550;2023-04-29T15:22:22;100814.72;;;21.72;100.00
32237;BME280;18726;44.732;10.550;2023-04-29T15:25:26;100819.91;;;21.93;100.00
32237;BME280;18726;44.732;10.550;2023-04-29T15:28:30;100809.19;;;21.14;100.00
32237;BME280;18726;44.732;10.550;2023-04-29T15:31:34;100801.31;;;21.43;100.00
32237;BME280;18726;44.732;10.550;2023-04-29T15:34:38;100806.69;;;21.27;100.00
32237;BME280;18726;44.732;10.550;2023-04-29T15:37:41;100801.06;;;21.34;100.00
32237;BME280;18726;44.732;10.550;2023-04-29T15:40:45;100793.44;;;21.42;100.00
32237;BME280;18726;44.732;10.550;2023-04-29T15:43:48;100792.25;;;21.43;100.00
32237;BME280;18726;44.732;10.550;2023-04-29T15:46:52;100789.84;;;21.45;100.00
32237;BME280;18726;44.732;10.550;2023-04-29T15:49:55;100791.25;;;21.56;100.00
32237;BME280;18726;44.732;10.550;2023-04-29T15:52:59;100797.38;;;21.68;100.00
32237;BME280;18726;44.732;10.550;2023-04-29T15:56:03;100797.78;;;21.93;100.00
32237;BME280;18726;44.732;10.550;2023-04-29T15:59:07;100797.19;;;21.55;100.00
32237;BME280;18726;44.732;10.550;2023-04-29T16:02:10;100797.94;;;21.82;100.00
32237;BME280;18726;44.732;10.550;2023-04-29T16:05:14;100791.47;;;21.42;100.00